createdAt,value
2019-03-24T00:01:23.952Z,50.28
2019-03-24T00:03:54.112Z,41.63
2019-03-24T00:06:24.261Z,41.00
2019-03-24T00:08:54.393Z,41.50
2019-03-24T00:11:24.494Z,51.83
2019-03-24T00:13:54.822Z,43.35
2019-03-24T00:16:24.966Z,42.80
2019-03-24T00:18:55.218Z,44.90
2019-03-24T00:21:25.288Z,45.55
2019-03-24T00:23:55.371Z,43.92
2019-03-24T00:26:25.607Z,43.42
2019-03-24T00:28:55.745Z,40.88
2019-03-24T00:31:25.828Z,46.63
2019-03-24T00:33:55.829Z,43.73
2019-03-24T00:36:25.994Z,47.38
2019-03-24T00:38:56.072Z,44.18
2019-03-24T00:41:26.079Z,46.40
2019-03-24T00:43:56.144Z,50.40
2019-03-24T00:46:26.299Z,46.35
2019-03-24T00:48:56.303Z,46.80
2019-03-24T00:51:26.411Z,98.30
2019-03-24T00:53:56.559Z,89.10
2019-03-24T00:56:26.656Z,85.67
2019-03-24T00:58:56.811Z,84.52
2019-03-24T01:01:26.889Z,74.25
2019-03-24T01:03:57.048Z,75.57
2019-03-24T01:06:27.256Z,70.05
2019-03-24T01:08:57.258Z,66.55
2019-03-24T01:11:27.474Z,60.43
2019-03-24T01:13:57.553Z,68.57
2019-03-24T01:16:27.624Z,59.13
2019-03-24T01:18:57.734Z,67.87
2019-03-24T01:21:27.889Z,56.30
2019-03-24T01:23:58.005Z,63.38
2019-03-24T01:26:28.154Z,60.52
2019-03-24T01:28:58.307Z,57.67
2019-03-24T01:31:28.481Z,60.52
2019-03-24T01:33:58.544Z,57.45
2019-03-24T01:36:28.708Z,60.90
2019-03-24T01:38:59.043Z,57.00
2019-03-24T01:41:29.340Z,59.55
2019-03-24T01:43:59.343Z,54.67
2019-03-24T01:46:29.437Z,56.45
2019-03-24T01:48:59.587Z,53.25
2019-03-24T01:51:29.683Z,52.40
2019-03-24T01:53:59.879Z,56.83
2019-03-24T01:56:29.969Z,54.98
2019-03-24T01:59:00.120Z,50.45
2019-03-24T02:01:30.313Z,53.23
2019-03-24T02:04:00.540Z,50.23
2019-03-24T02:06:30.694Z,58.13
2019-03-24T02:09:00.792Z,57.20
2019-03-24T02:11:32.815Z,61.80
2019-03-24T02:14:03.031Z,55.52
2019-03-24T02:16:33.058Z,58.13
2019-03-24T02:19:03.150Z,50.30
2019-03-24T02:21:34.241Z,48.42
2019-03-24T02:24:04.601Z,53.28
2019-03-24T02:26:34.820Z,51.75
2019-03-24T02:29:05.073Z,50.33
2019-03-24T02:31:35.230Z,55.98
2019-03-24T02:34:05.379Z,57.43
2019-03-24T02:36:35.527Z,52.15
2019-03-24T02:39:07.235Z,50.88
2019-03-24T02:41:37.398Z,50.80
2019-03-24T02:44:07.537Z,44.58
2019-03-24T02:46:37.621Z,47.30
2019-03-24T02:49:07.698Z,41.45
2019-03-24T02:51:37.792Z,46.60
2019-03-24T02:54:07.938Z,45.05
2019-03-24T02:56:38.094Z,43.90
2019-03-24T02:59:08.253Z,46.68
2019-03-24T03:01:38.478Z,65.65
2019-03-24T03:04:08.639Z,334.30
2019-03-24T03:06:38.810Z,190.45
2019-03-24T03:09:09.136Z,311.73
2019-03-24T03:11:39.306Z,198.13
2019-03-24T03:14:09.410Z,76.20
2019-03-24T03:16:39.660Z,52.00
2019-03-24T03:19:09.799Z,33.90
2019-03-24T03:21:39.828Z,35.43
2019-03-24T03:24:10.055Z,34.23
2019-03-24T03:26:40.281Z,30.75
2019-03-24T03:29:10.357Z,32.88
2019-03-24T03:31:40.519Z,31.55
2019-03-24T03:34:10.696Z,37.08
2019-03-24T03:36:40.894Z,32.85
2019-03-24T03:39:11.131Z,42.15
2019-03-24T03:41:41.326Z,28.32
2019-03-24T03:44:11.457Z,31.37
2019-03-24T03:46:51.959Z,34.33
2019-03-24T03:49:13.232Z,33.65
2019-03-24T03:51:43.468Z,27.95
2019-03-24T03:54:13.601Z,32.90
2019-03-24T03:56:43.693Z,29.37
2019-03-24T03:59:13.905Z,30.82
2019-03-24T04:01:44.135Z,32.08
2019-03-24T04:04:14.418Z,30.40
2019-03-24T04:06:44.583Z,25.80
2019-03-24T04:09:15.840Z,28.92
2019-03-24T04:11:45.984Z,27.65
2019-03-24T04:14:15.989Z,34.80
2019-03-24T04:16:46.245Z,22.65
2019-03-24T04:19:16.401Z,25.70
2019-03-24T04:21:46.555Z,22.25
2019-03-24T04:24:16.573Z,27.62
2019-03-24T04:26:48.557Z,29.25
2019-03-24T04:29:18.713Z,33.15
2019-03-24T04:31:48.855Z,31.35
2019-03-24T04:34:18.875Z,29.87
2019-03-24T04:36:48.945Z,26.40
2019-03-24T04:39:19.121Z,31.80
2019-03-24T04:41:49.270Z,28.12
2019-03-24T04:44:19.429Z,26.82
2019-03-24T04:46:49.650Z,27.98
2019-03-24T04:49:19.878Z,27.62
2019-03-24T04:51:49.953Z,29.05
2019-03-24T04:54:20.081Z,32.08
2019-03-24T04:56:50.296Z,33.15
2019-03-24T04:59:20.380Z,31.00
2019-03-24T05:01:50.608Z,28.62
2019-03-24T05:04:20.831Z,31.48
2019-03-24T05:06:51.165Z,27.82
2019-03-24T05:09:21.314Z,30.32
2019-03-24T05:11:51.404Z,28.30
2019-03-24T05:14:21.617Z,28.15
2019-03-24T05:16:51.708Z,29.87
2019-03-24T05:19:21.777Z,30.62
2019-03-24T05:21:51.940Z,26.90
2019-03-24T05:24:22.142Z,28.32
2019-03-24T05:26:53.375Z,32.50
2019-03-24T05:29:23.460Z,29.05
2019-03-24T05:31:53.568Z,28.23
2019-03-24T05:34:23.717Z,34.20
2019-03-24T05:36:53.814Z,31.57
2019-03-24T05:39:23.976Z,38.00
2019-03-24T05:41:54.187Z,28.98
2019-03-24T05:44:24.452Z,30.40
2019-03-24T05:46:54.599Z,30.20
2019-03-24T05:49:24.906Z,36.88
2019-03-24T05:51:55.031Z,28.23
2019-03-24T05:54:25.202Z,36.23
2019-03-24T05:56:55.284Z,30.92
2019-03-24T05:59:25.444Z,31.20
2019-03-24T06:01:55.527Z,28.73
2019-03-24T06:04:25.731Z,29.07
2019-03-24T06:06:55.811Z,31.73
2019-03-24T06:09:25.965Z,30.68
2019-03-24T06:11:56.058Z,32.35
2019-03-24T06:14:26.199Z,32.48
2019-03-24T06:16:56.356Z,33.33
2019-03-24T06:19:26.420Z,37.73
2019-03-24T06:21:56.503Z,35.70
2019-03-24T06:24:26.719Z,36.42
2019-03-24T06:26:56.871Z,36.40
2019-03-24T06:29:26.948Z,40.03
2019-03-24T06:31:57.108Z,36.25
2019-03-24T06:34:27.191Z,38.67
2019-03-24T06:36:57.345Z,34.73
2019-03-24T06:39:27.507Z,37.75
2019-03-24T06:41:57.514Z,35.05
2019-03-24T06:44:27.654Z,36.30
2019-03-24T06:46:57.713Z,43.78
2019-03-24T06:49:27.884Z,39.50
2019-03-24T06:51:58.106Z,42.13
2019-03-24T06:54:28.124Z,44.75
2019-03-24T06:56:58.209Z,49.33
2019-03-24T06:59:28.225Z,58.08
2019-03-24T07:01:58.372Z,63.45
2019-03-24T07:04:28.533Z,53.78
2019-03-24T07:06:58.823Z,49.67
2019-03-24T07:09:29.003Z,54.42
2019-03-24T07:12:00.158Z,46.88
2019-03-24T07:14:30.448Z,49.88
2019-03-24T07:17:00.600Z,55.10
2019-03-24T07:19:30.803Z,38.88
2019-03-24T07:22:00.895Z,36.73
2019-03-24T07:24:30.975Z,37.10
2019-03-24T07:27:01.255Z,28.40
2019-03-24T07:29:31.339Z,32.75
2019-03-24T07:32:01.491Z,37.33
2019-03-24T07:34:31.645Z,36.55
2019-03-24T07:37:01.801Z,33.20
2019-03-24T07:39:31.884Z,35.78
2019-03-24T07:42:02.121Z,36.05
2019-03-24T07:44:32.339Z,32.08
2019-03-24T07:47:05.444Z,33.45
2019-03-24T07:49:35.596Z,25.43
2019-03-24T07:52:05.713Z,27.82
2019-03-24T07:54:35.863Z,30.65
2019-03-24T07:57:05.891Z,24.60
2019-03-24T07:59:36.062Z,24.30
2019-03-24T08:02:06.203Z,22.15
2019-03-24T08:04:36.307Z,22.17
2019-03-24T08:07:06.538Z,23.62
2019-03-24T08:09:37.301Z,22.27
2019-03-24T08:12:07.616Z,25.40
2019-03-24T08:14:37.777Z,25.75
2019-03-24T08:17:07.928Z,30.02
2019-03-24T08:19:38.997Z,26.05
2019-03-24T08:22:09.232Z,25.50
2019-03-24T08:24:39.239Z,27.55
2019-03-24T08:27:09.379Z,26.82
2019-03-24T08:29:40.542Z,27.85
2019-03-24T08:32:10.640Z,26.57
2019-03-24T08:34:40.793Z,29.77
2019-03-24T08:37:11.011Z,33.35
2019-03-24T08:39:41.179Z,36.53
2019-03-24T08:42:11.407Z,39.78
2019-03-24T08:44:41.610Z,35.00
2019-03-24T08:47:11.759Z,43.98
2019-03-24T08:49:41.923Z,39.60
2019-03-24T08:52:12.017Z,40.28
2019-03-24T08:54:42.249Z,37.10
2019-03-24T08:57:12.339Z,40.30
2019-03-24T08:59:42.503Z,37.75
2019-03-24T09:02:12.619Z,36.65
2019-03-24T09:04:42.839Z,35.33
2019-03-24T09:07:12.976Z,40.92
2019-03-24T09:09:43.149Z,36.95
2019-03-24T09:12:13.153Z,37.55
2019-03-24T09:14:43.176Z,33.25
2019-03-24T09:17:13.205Z,41.45
2019-03-24T09:19:43.284Z,42.13
2019-03-24T09:22:13.385Z,39.65
2019-03-24T09:24:43.634Z,41.95
2019-03-24T09:27:13.796Z,40.52
2019-03-24T09:29:44.106Z,39.05
2019-03-24T09:32:14.260Z,39.65
2019-03-24T09:34:44.517Z,38.25
2019-03-24T09:37:14.834Z,40.58
2019-03-24T09:39:45.120Z,40.28
2019-03-24T09:42:16.280Z,43.38
2019-03-24T09:44:46.508Z,40.88
2019-03-24T09:47:17.733Z,43.42
2019-03-24T09:49:47.823Z,39.98
2019-03-24T09:52:17.917Z,40.10
2019-03-24T09:54:48.185Z,41.60
2019-03-24T09:57:18.406Z,44.60
2019-03-24T09:59:48.562Z,43.63
2019-03-24T10:02:18.801Z,45.38
2019-03-24T10:04:48.960Z,43.35
2019-03-24T10:07:19.181Z,45.73
2019-03-24T10:09:49.343Z,43.33
2019-03-24T10:12:19.419Z,43.40
2019-03-24T10:14:49.640Z,46.58
2019-03-24T10:17:19.725Z,47.20
2019-03-24T10:19:49.743Z,41.75
2019-03-24T10:22:19.918Z,44.45
2019-03-24T10:24:50.072Z,49.05
2019-03-24T10:27:20.347Z,49.90
2019-03-24T10:29:50.507Z,45.33
2019-03-24T10:32:20.681Z,48.92
2019-03-24T10:34:50.909Z,41.02
2019-03-24T10:37:20.992Z,41.73
2019-03-24T10:39:51.193Z,41.05
2019-03-24T10:42:22.525Z,46.98
2019-03-24T10:44:52.603Z,43.33
2019-03-24T10:47:22.766Z,45.73
2019-03-24T10:49:52.993Z,33.92
2019-03-24T10:52:23.169Z,33.45
2019-03-24T10:54:53.322Z,35.85
2019-03-24T10:57:23.522Z,31.73
2019-03-24T10:59:53.845Z,33.28
2019-03-24T11:02:24.184Z,33.53
2019-03-24T11:04:54.418Z,32.75
2019-03-24T11:07:24.558Z,30.23
2019-03-24T11:09:54.677Z,30.00
2019-03-24T11:12:24.887Z,30.68
2019-03-24T11:14:55.048Z,28.50
2019-03-24T11:17:25.210Z,24.80
2019-03-24T11:19:55.371Z,21.82
2019-03-24T11:22:25.587Z,24.82
2019-03-24T11:24:55.773Z,26.75
2019-03-24T11:27:26.001Z,35.00
2019-03-24T11:29:56.171Z,25.72
2019-03-24T11:32:26.257Z,24.15
2019-03-24T11:35:02.300Z,20.00
2019-03-24T11:37:29.744Z,17.45
2019-03-24T11:39:59.837Z,15.48
2019-03-24T11:42:29.993Z,16.50
2019-03-24T11:45:00.083Z,14.90
2019-03-24T11:47:30.496Z,13.93
2019-03-24T11:50:00.642Z,15.18
2019-03-24T11:52:32.117Z,12.73
2019-03-24T11:55:02.273Z,12.63
2019-03-24T11:57:32.496Z,12.63
2019-03-24T12:00:02.728Z,12.78
2019-03-24T12:02:32.921Z,9.38
2019-03-24T12:05:03.148Z,11.40
2019-03-24T12:07:33.347Z,13.72
2019-03-24T12:10:05.032Z,13.50
2019-03-24T12:12:35.175Z,15.18
2019-03-24T12:15:07.239Z,14.83
2019-03-24T12:17:37.401Z,18.40
2019-03-24T12:20:09.472Z,17.30
2019-03-24T12:22:39.761Z,15.78
2019-03-24T12:25:10.001Z,18.90
2019-03-24T12:27:40.211Z,26.17
2019-03-24T12:30:10.751Z,22.87
2019-03-24T12:32:40.909Z,22.48
2019-03-24T12:35:11.886Z,19.37
2019-03-24T12:37:42.038Z,25.00
2019-03-24T12:40:12.306Z,20.82
2019-03-24T12:42:42.538Z,22.82
2019-03-24T12:45:13.044Z,22.07
2019-03-24T12:47:43.131Z,22.52
2019-03-24T12:50:13.693Z,20.68
2019-03-24T12:52:43.848Z,22.50
2019-03-24T12:55:14.041Z,22.75
2019-03-24T12:57:44.319Z,24.63
2019-03-24T13:00:18.480Z,22.58
2019-03-24T13:02:48.488Z,30.25
2019-03-24T13:05:18.719Z,24.05
2019-03-24T13:07:48.817Z,30.12
2019-03-24T13:10:18.836Z,22.05
2019-03-24T13:12:49.011Z,26.10
2019-03-24T13:15:19.092Z,28.60
2019-03-24T13:17:49.262Z,35.48
2019-03-24T13:20:24.450Z,36.03
2019-03-24T13:22:51.050Z,44.73
2019-03-24T13:25:21.197Z,38.98
2019-03-24T13:27:51.385Z,57.73
2019-03-24T13:30:21.580Z,100.85
2019-03-24T13:32:51.822Z,42.05
2019-03-24T13:35:21.910Z,40.95
2019-03-24T13:37:51.999Z,38.38
2019-03-24T13:40:22.086Z,38.88
2019-03-24T13:42:52.373Z,38.70
2019-03-24T13:45:22.602Z,34.85
2019-03-24T13:47:52.761Z,40.12
2019-03-24T13:50:31.095Z,39.70
2019-03-24T13:52:54.854Z,32.55
2019-03-24T13:55:25.085Z,32.00
2019-03-24T13:57:55.310Z,30.52
2019-03-24T14:00:25.641Z,32.60
2019-03-24T14:02:55.897Z,30.48
2019-03-24T14:05:25.988Z,30.92
2019-03-24T14:07:56.204Z,34.40
2019-03-24T14:10:26.307Z,38.48
2019-03-24T14:12:56.611Z,32.85
2019-03-24T14:15:26.741Z,38.92
2019-03-24T14:17:56.861Z,36.38
2019-03-24T14:20:27.123Z,35.52
2019-03-24T14:22:57.339Z,34.33
2019-03-24T14:25:27.628Z,28.85
2019-03-24T14:27:57.646Z,27.02
2019-03-24T14:30:45.216Z,30.17
2019-03-24T14:33:15.535Z,29.35
2019-03-24T14:35:45.963Z,28.12
2019-03-24T14:38:16.205Z,26.57
2019-03-24T14:40:46.358Z,25.97
2019-03-24T14:43:16.523Z,26.90
2019-03-24T14:45:46.607Z,28.67
2019-03-24T14:48:16.744Z,26.77
2019-03-24T14:50:54.351Z,28.38
2019-03-24T14:53:18.459Z,26.55
2019-03-24T14:55:48.521Z,25.85
2019-03-24T14:58:18.689Z,28.80
2019-03-24T15:00:49.137Z,24.92
2019-03-24T15:03:19.251Z,31.33
2019-03-24T15:05:49.411Z,23.98
2019-03-24T15:08:19.636Z,23.00
2019-03-24T15:10:49.738Z,23.98
2019-03-24T15:13:19.890Z,25.00
2019-03-24T15:15:50.133Z,20.35
2019-03-24T15:18:20.231Z,27.15
2019-03-24T15:20:50.251Z,28.90
2019-03-24T15:23:20.482Z,28.17
2019-03-24T15:25:50.720Z,30.65
2019-03-24T15:28:20.864Z,27.75
2019-03-24T15:30:50.953Z,28.27
2019-03-24T15:33:21.037Z,30.30
2019-03-24T15:35:51.120Z,25.43
2019-03-24T15:38:21.203Z,20.62
2019-03-24T15:40:51.430Z,21.37
2019-03-24T15:43:21.584Z,19.52
2019-03-24T15:45:51.806Z,25.80
2019-03-24T15:48:21.836Z,25.02
2019-03-24T15:50:52.089Z,23.32
2019-03-24T15:53:22.188Z,22.93
2019-03-24T15:55:53.409Z,24.45
2019-03-24T15:58:23.499Z,22.25
2019-03-24T16:00:53.506Z,23.42
2019-03-24T16:03:23.747Z,27.40
2019-03-24T16:05:56.297Z,23.50
2019-03-24T16:08:25.756Z,19.90
2019-03-24T16:10:55.908Z,22.02
2019-03-24T16:13:26.071Z,25.05
2019-03-24T16:15:56.084Z,28.98
2019-03-24T16:18:26.260Z,25.27
2019-03-24T16:20:56.480Z,26.40
2019-03-24T16:23:26.593Z,24.60
2019-03-24T16:25:56.739Z,27.07
2019-03-24T16:28:26.902Z,28.00
2019-03-24T16:30:56.991Z,25.80
2019-03-24T16:33:27.140Z,24.52
2019-03-24T16:35:57.378Z,28.25
2019-03-24T16:38:27.610Z,24.23
2019-03-24T16:40:57.773Z,25.02
2019-03-24T16:43:27.944Z,26.60
2019-03-24T16:45:58.179Z,25.37
2019-03-24T16:48:36.495Z,24.52
2019-03-24T16:51:00.125Z,26.27
2019-03-24T16:53:30.225Z,32.58
2019-03-24T16:56:00.316Z,25.27
2019-03-24T16:58:30.487Z,27.32
2019-03-24T17:01:00.605Z,27.60
2019-03-24T17:03:30.683Z,29.27
2019-03-24T17:06:00.776Z,26.93
2019-03-24T17:08:30.880Z,25.60
2019-03-24T17:11:01.105Z,29.00
2019-03-24T17:13:31.195Z,28.80
2019-03-24T17:16:01.346Z,30.82
2019-03-24T17:18:31.595Z,22.93
2019-03-24T17:21:01.812Z,29.55
2019-03-24T17:23:31.979Z,26.27
2019-03-24T17:26:02.054Z,27.50
2019-03-24T17:28:32.236Z,23.98
2019-03-24T17:31:02.385Z,26.25
2019-03-24T17:33:32.540Z,30.08
2019-03-24T17:36:02.839Z,29.70
2019-03-24T17:38:32.950Z,28.47
2019-03-24T17:41:03.393Z,30.30
2019-03-24T17:43:33.476Z,28.77
2019-03-24T17:46:03.631Z,26.27
2019-03-24T17:48:33.993Z,24.10
2019-03-24T17:51:04.227Z,33.33
2019-03-24T17:53:34.465Z,35.60
2019-03-24T17:56:05.531Z,33.98
2019-03-24T17:58:36.410Z,33.05
2019-03-24T18:01:06.654Z,33.58
2019-03-24T18:03:36.660Z,37.17
2019-03-24T18:06:06.913Z,40.25
2019-03-24T18:08:37.064Z,35.35
2019-03-24T18:11:07.304Z,41.30
2019-03-24T18:13:37.390Z,43.65
2019-03-24T18:16:07.489Z,40.40
2019-03-24T18:18:37.492Z,44.10
2019-03-24T18:21:07.660Z,39.95
2019-03-24T18:23:37.952Z,42.40
2019-03-24T18:26:08.046Z,39.92
2019-03-24T18:28:38.258Z,43.48
2019-03-24T18:31:08.527Z,35.48
2019-03-24T18:33:38.758Z,43.05
2019-03-24T18:36:08.915Z,44.55
2019-03-24T18:38:39.148Z,42.65
2019-03-24T18:41:09.300Z,42.67
2019-03-24T18:43:39.352Z,50.67
2019-03-24T18:46:09.567Z,58.10
2019-03-24T18:48:39.656Z,53.28
2019-03-24T18:51:09.943Z,49.90
2019-03-24T18:53:40.103Z,52.88
2019-03-24T18:56:10.197Z,49.50
2019-03-24T18:58:40.364Z,51.77
2019-03-24T19:01:10.392Z,55.25
2019-03-24T19:03:40.504Z,59.83
2019-03-24T19:06:10.731Z,60.60
2019-03-24T19:08:40.933Z,57.55
2019-03-24T19:11:11.151Z,63.73
2019-03-24T19:13:41.287Z,66.55
2019-03-24T19:16:11.516Z,61.25
2019-03-24T19:18:41.596Z,64.75
2019-03-24T19:21:11.757Z,65.10
2019-03-24T19:23:41.840Z,62.30
2019-03-24T19:26:12.070Z,66.65
2019-03-24T19:28:42.230Z,66.33
2019-03-24T19:31:12.396Z,63.92
2019-03-24T19:33:42.826Z,64.62
2019-03-24T19:36:12.981Z,63.10
2019-03-24T19:38:43.242Z,63.90
2019-03-24T19:41:13.416Z,53.13
2019-03-24T19:43:43.647Z,70.78
2019-03-24T19:46:13.719Z,59.03
2019-03-24T19:48:43.893Z,57.20
2019-03-24T19:51:14.127Z,53.20
2019-03-24T19:53:44.374Z,59.23
2019-03-24T19:56:15.589Z,54.03
2019-03-24T19:58:45.908Z,61.42
2019-03-24T20:01:16.133Z,57.58
2019-03-24T20:03:46.305Z,54.93
2019-03-24T20:06:16.756Z,60.35
2019-03-24T20:08:47.021Z,55.73
2019-03-24T20:11:17.257Z,60.83
2019-03-24T20:13:47.939Z,62.08
2019-03-24T20:16:18.156Z,58.85
2019-03-24T20:18:48.319Z,55.28
2019-03-24T20:21:18.573Z,69.87
2019-03-24T20:23:48.586Z,60.50
2019-03-24T20:26:18.818Z,62.48
2019-03-24T20:28:49.013Z,62.50
2019-03-24T20:31:19.331Z,57.35
2019-03-24T20:33:49.633Z,57.67
2019-03-24T20:36:20.020Z,59.58
2019-03-24T20:38:50.234Z,60.48
2019-03-24T20:41:20.502Z,52.85
2019-03-24T20:43:50.584Z,67.65
2019-03-24T20:46:20.751Z,58.00
2019-03-24T20:48:50.761Z,63.02
2019-03-24T20:51:20.979Z,63.48
2019-03-24T20:53:51.154Z,59.80
2019-03-24T20:56:21.481Z,50.40
2019-03-24T20:58:52.119Z,57.50
2019-03-24T21:01:22.420Z,56.50
2019-03-24T21:03:52.718Z,65.95
2019-03-24T21:06:22.868Z,55.85
2019-03-24T21:08:52.973Z,57.48
2019-03-24T21:11:23.269Z,59.53
2019-03-24T21:13:53.438Z,60.50
2019-03-24T21:16:25.456Z,61.77
2019-03-24T21:18:55.640Z,57.85
2019-03-24T21:21:25.802Z,59.20
2019-03-24T21:23:56.572Z,60.23
2019-03-24T21:26:26.662Z,56.05
2019-03-24T21:28:56.684Z,58.08
2019-03-24T21:31:26.906Z,65.57
2019-03-24T21:33:57.200Z,65.35
2019-03-24T21:36:27.375Z,64.53
2019-03-24T21:38:57.456Z,63.13
2019-03-24T21:41:27.701Z,60.03
2019-03-24T21:43:57.775Z,63.15
2019-03-24T21:46:27.866Z,64.07
2019-03-24T21:48:58.160Z,65.83
2019-03-24T21:51:28.421Z,58.23
2019-03-24T21:53:58.564Z,56.10
2019-03-24T21:56:28.810Z,64.65
2019-03-24T21:58:58.891Z,50.48
2019-03-24T22:01:29.130Z,57.75
2019-03-24T22:03:59.356Z,58.28
2019-03-24T22:06:29.492Z,60.63
2019-03-24T22:08:59.635Z,61.02
2019-03-24T22:11:29.843Z,61.45
2019-03-24T22:14:00.071Z,62.23
2019-03-24T22:16:30.062Z,57.48
2019-03-24T22:19:00.211Z,53.80
2019-03-24T22:21:30.499Z,60.08
2019-03-24T22:24:00.803Z,54.80
2019-03-24T22:26:30.958Z,73.72
2019-03-24T22:29:01.112Z,60.25
2019-03-24T22:31:31.248Z,62.25
2019-03-24T22:34:01.403Z,60.48
2019-03-24T22:36:31.615Z,62.85
2019-03-24T22:39:01.820Z,55.10
2019-03-24T22:41:33.382Z,57.45
2019-03-24T22:44:03.522Z,62.75
2019-03-24T22:46:33.663Z,59.95
2019-03-24T22:49:04.868Z,59.85
2019-03-24T22:51:35.127Z,61.42
2019-03-24T22:54:05.263Z,60.17
2019-03-24T22:56:35.492Z,66.22
2019-03-24T22:59:05.712Z,58.98
2019-03-24T23:01:36.013Z,58.65
2019-03-24T23:04:06.227Z,60.63
2019-03-24T23:06:36.394Z,62.33
2019-03-24T23:09:09.013Z,61.70
2019-03-24T23:11:39.243Z,64.15
2019-03-24T23:14:09.239Z,67.32
2019-03-24T23:16:39.497Z,68.90
2019-03-24T23:19:09.559Z,61.90
2019-03-24T23:21:39.570Z,64.07
2019-03-24T23:24:15.323Z,64.17
2019-03-24T23:26:41.500Z,60.63
2019-03-24T23:29:12.661Z,60.85
2019-03-24T23:31:42.732Z,58.30
2019-03-24T23:34:12.902Z,64.82
2019-03-24T23:36:43.059Z,63.17
2019-03-24T23:39:14.272Z,67.37
2019-03-24T23:41:44.423Z,66.12
2019-03-24T23:44:14.509Z,72.82
2019-03-24T23:46:44.658Z,57.45
2019-03-24T23:49:14.808Z,57.62
2019-03-24T23:51:44.962Z,63.25
2019-03-24T23:54:22.495Z,65.50
2019-03-24T23:56:46.744Z,61.48
2019-03-24T23:59:16.885Z,60.92
